Latest Weather Observations for Swanbourne

IDW60801

Issued at 4:34 am WST Monday 29 August 2016 (issued every 30 minutes, with the page automatically refreshed every 10 minutes)

About weather observations | Map of weather stations | Latest weather observations for WA | Other Formats
Station Details ID: 009215 Name: SWANBOURNE Lat: -31.96 Lon: 115.76 Height: 40.96 m
Data from the previous 72 hours. | See also: Recent months at Swanbourne
Date/Time
WST
Temp
°C
App
Temp
°C
Dew
Point
°C
Rel
Hum
%
Delta-T
°C
Wind Press
QNH
hPa
Press
MSL
hPa
Rain since
9am
mm
Dir  Spd
km/h
Gust
km/h
Spd
kts
Gust
kts
29/04:30am 12.1 9.2 8.2 77 1.9 SSE 13 19 7 10 - - 0.0
29/04:00am 12.1 9.6 8.4 78 1.8 SSE 11 17 6 9 - - 0.0
29/03:30am 12.1 10.0 8.4 78 1.8 S 9 19 5 10 - - 0.0
29/03:00am 12.3 9.9 8.6 78 1.8 S 11 19 6 10 - - 0.0
29/02:30am 12.1 9.3 8.6 79 1.7 S 13 20 7 11 - - 0.0
29/02:00am 11.9 9.0 8.0 77 1.9 S 13 20 7 11 - - 0.0
29/01:30am 12.4 9.9 8.3 76 2.0 S 11 17 6 9 - - 0.0
29/01:00am 12.3 9.1 8.6 78 1.8 S 15 22 8 12 - - 0.0
29/12:30am 11.8 9.9 9.0 83 1.4 S 9 15 5 8 - - 0.0
29/12:00am 11.5 8.9 9.2 86 1.2 S 13 20 7 11 - - 0.0
 
Date/Time
WST
Temp
°C
App
Temp
°C
Dew
Point
°C
Rel
Hum
%
Delta-T
°C
Wind Press
QNH
hPa
Press
MSL
hPa
Rain since
9am
mm
Dir  Spd
km/h
Gust
km/h
Spd
kts
Gust
kts
28/11:30pm 11.7 9.1 9.4 86 1.2 S 13 20 7 11 - - 0.0
28/11:00pm 11.6 9.4 9.3 86 1.2 S 11 17 6 9 - - 0.0
28/10:30pm 12.0 9.5 9.6 85 1.2 SSE 13 20 7 11 - - 0.0
28/10:00pm 12.4 9.6 10.0 85 1.2 S 15 24 8 13 - - 0.0
28/09:30pm 12.6 9.0 10.0 84 1.3 S 19 26 10 14 - - 0.0
28/09:00pm 12.7 9.5 9.9 83 1.4 S 17 28 9 15 - - 0.0
28/08:30pm 12.9 9.3 9.7 81 1.6 S 19 32 10 17 - - 0.0
28/08:00pm 13.2 9.3 9.6 79 1.8 S 20 32 11 17 - - 0.0
28/07:30pm 13.4 8.8 9.6 78 1.9 S 24 35 13 19 - - 0.0
28/07:00pm 13.6 9.7 9.6 77 2.1 S 20 33 11 18 - - 0.0
28/06:30pm 13.8 9.3 10.0 78 2.0 SSW 24 39 13 21 - - 0.0
28/06:00pm 13.7 9.2 10.1 79 1.9 SSW 24 39 13 21 - - 0.0
28/05:30pm 14.3 9.4 10.1 76 2.2 SSW 26 39 14 21 - - 0.0
28/05:00pm 14.5 9.6 10.1 75 2.3 SSW 26 41 14 22 - - 0.0
28/04:30pm 14.3 9.3 9.7 74 2.4 SSW 26 39 14 21 - - 0.0
28/04:00pm 14.6 9.2 9.6 72 2.6 SSW 28 41 15 22 - - 0.0
28/03:32pm 13.0 7.1 9.1 77 2.0 SSW 30 48 16 26 - - 0.0
28/03:30pm 13.0 6.7 9.1 77 2.0 SSW 32 48 17 26 - - 0.0
28/03:00pm 15.0 8.7 8.9 67 3.1 SSW 32 43 17 23 - - 0.0
28/02:30pm 14.8 10.6 11.0 78 2.0 SSW 24 39 13 21 - - 0.0
28/02:00pm 15.0 9.4 8.7 66 3.2 SSW 28 43 15 23 - - 0.0
28/01:30pm 14.6 8.6 8.5 67 3.1 SSW 30 43 16 23 - - 0.0
28/01:00pm 14.9 9.0 9.1 68 3.0 SSW 30 44 16 24 - - 0.0
28/12:30pm 14.5 8.9 8.9 69 2.8 SSW 28 43 15 23 - - 0.0
28/12:00pm 15.2 9.7 9.3 68 3.0 SSW 28 46 15 25 - - 0.0
28/11:30am 14.6 8.2 8.5 67 3.1 SSW 32 52 17 28 - - 0.0
28/11:27am 14.5 8.5 8.7 68 2.9 SSW 30 52 16 28 - - 0.0
28/11:00am 14.6 8.6 8.8 68 2.9 SSW 30 46 16 25 - - 0.0
28/10:31am 14.4 8.3 8.4 67 3.0 S 30 50 16 27 - - 0.0
28/10:30am 14.4 8.3 8.4 67 3.0 S 30 48 16 26 - - 0.0
28/10:14am 14.5 8.5 8.5 67 3.0 S 30 50 16 27 - - 0.0
28/10:00am 14.4 9.2 9.0 70 2.7 S 26 41 14 22 - - 0.0
28/09:30am 13.1 8.7 8.8 75 2.2 S 22 35 12 19 - - 0.0
28/09:00am 13.3 7.2 8.4 72 2.4 S 30 46 16 25 - - 4.2
28/08:30am 12.8 7.2 8.7 76 2.1 S 28 46 15 25 - - 4.2
28/08:00am 12.3 6.2 8.4 77 1.9 S 30 46 16 25 - - 4.2
28/07:30am 12.5 6.5 8.6 77 1.9 S 30 48 16 26 - - 4.2
28/07:01am 12.3 6.1 7.8 74 2.2 S 30 50 16 27 - - 4.2
28/07:00am 12.3 6.1 8.0 75 2.1 S 30 44 16 24 - - 4.2
28/06:30am 11.7 7.3 8.9 83 1.4 S 22 33 12 18 - - 4.2
28/06:06am 11.4 5.9 9.1 86 1.2 S 28 46 15 25 - - 4.2
28/06:00am 11.4 5.9 9.0 85 1.2 S 28 43 15 23 - - 4.2
28/05:50am 11.3 5.4 9.0 86 1.1 S 30 48 16 26 - - 4.2
28/05:30am 12.4 6.7 8.5 77 1.9 SSW 28 43 15 23 - - 4.0
28/05:00am 12.2 5.7 8.1 76 2.0 S 32 54 17 29 - - 4.0
28/04:40am 12.6 6.4 7.7 72 2.4 S 30 48 16 26 - - 4.0
28/04:30am 12.5 7.1 8.0 74 2.2 S 26 39 14 21 - - 4.0
28/04:00am 12.4 7.4 8.1 75 2.1 S 24 44 13 24 - - 4.0
28/03:30am 12.3 6.9 8.0 75 2.1 S 26 46 14 25 - - 4.0
28/03:09am 12.3 5.8 8.0 75 2.1 SSW 32 54 17 29 - - 4.0
28/03:00am 12.4 5.7 8.3 76 2.0 SSW 33 50 18 27 - - 4.0
28/02:33am 12.4 6.7 8.5 77 1.9 SSW 28 50 15 27 - - 4.0
28/02:30am 12.4 6.4 8.5 77 1.9 SSW 30 46 16 25 - - 4.0
28/02:00am 12.4 6.0 9.2 81 1.6 SSW 33 50 18 27 - - 4.0
28/01:30am 12.1 6.9 10.2 88 1.0 SSW 28 46 15 25 - - 3.8
28/01:00am 11.5 5.7 10.7 95 0.4 SSW 32 61 17 33 - - 3.8
28/12:36am 11.8 5.7 10.5 92 0.7 SW 33 54 18 29 - - 3.4
28/12:30am 11.9 5.4 10.5 91 0.7 SW 35 54 19 29 - - 3.4
28/12:00am 11.7 5.3 10.8 94 0.5 SW 35 56 19 30 - - 3.4
 
Date/Time
WST
Temp
°C
App
Temp
°C
Dew
Point
°C
Rel
Hum
%
Delta-T
°C
Wind Press
QNH
hPa
Press
MSL
hPa
Rain since
9am
mm
Dir  Spd
km/h
Gust
km/h
Spd
kts
Gust
kts
27/11:30pm 11.8 5.9 10.5 92 0.7 SSW 32 52 17 28 - - 2.6
27/11:27pm 12.2 6.8 10.9 92 0.7 SSW 30 52 16 28 - - 2.6
27/11:00pm 11.9 6.0 11.3 96 0.3 SSW 33 52 18 28 - - 2.6
27/10:32pm 12.5 6.5 10.7 89 0.9 SW 33 57 18 31 - - 1.6
27/10:30pm 12.2 6.3 10.4 89 0.9 SW 32 48 17 26 - - 1.6
27/10:04pm 12.7 5.5 9.3 80 1.7 SSW 37 56 20 30 - - 1.4
27/10:00pm 13.5 5.9 9.0 74 2.3 SSW 39 56 21 30 - - 1.4
27/09:41pm 13.2 6.2 10.0 81 1.7 SW 37 63 20 34 - - 1.4
27/09:30pm 12.6 6.5 10.3 86 1.2 SW 33 50 18 27 - - 1.4
27/09:00pm 12.9 6.7 9.4 79 1.8 SW 32 52 17 28 - - 1.2
27/08:30pm 13.5 6.1 9.7 78 2.0 SW 39 57 21 31 - - 1.2
27/08:02pm 13.7 6.3 9.7 77 2.1 SW 39 59 21 32 - - 1.2
27/08:00pm 13.7 6.3 9.7 77 2.1 SW 39 57 21 31 - - 1.2
27/07:39pm 13.3 6.1 10.5 83 1.5 SW 39 61 21 33 - - 1.2
27/07:30pm 12.7 5.5 10.6 87 1.1 SW 39 54 21 29 - - 1.2
27/07:00pm 12.9 6.1 10.8 87 1.1 SW 37 59 20 32 - - 1.0
27/06:46pm 14.1 7.4 10.9 81 1.7 WSW 37 59 20 32 - - 0.6
27/06:30pm 14.1 6.2 9.5 74 2.4 WSW 41 56 22 30 - - 0.6
27/06:00pm 14.0 5.6 9.0 72 2.5 WSW 43 63 23 34 - - 0.6
27/05:38pm 13.6 5.8 9.8 78 2.0 WSW 41 65 22 35 - - 0.6
27/05:30pm 13.5 6.9 10.1 80 1.8 WSW 35 50 19 27 - - 0.6
27/05:00pm 13.1 5.5 10.6 85 1.3 WSW 41 67 22 36 - - 0.6
27/04:36pm 13.8 7.1 9.8 77 2.1 WSW 35 56 19 30 - - 0.4
27/04:30pm 13.8 7.3 10.2 79 1.9 WSW 35 48 19 26 - - 0.4
27/04:00pm 13.6 6.8 10.8 83 1.5 WSW 37 52 20 28 - - 0.4
27/03:30pm 14.5 7.3 9.3 71 2.7 WSW 37 54 20 29 - - 0.2
27/03:00pm 14.4 7.6 9.4 72 2.6 WSW 35 57 19 31 - - 0.2
27/02:31pm 14.7 8.6 10.5 76 2.2 WSW 33 56 18 30 - - 0.2
27/02:30pm 14.4 8.2 10.2 76 2.2 WSW 33 48 18 26 - - 0.2
27/02:00pm 15.1 8.9 9.5 69 2.9 WSW 32 46 17 25 - - 0.2
27/01:30pm 15.3 8.9 9.2 67 3.1 WSW 33 48 18 26 - - 0.2
27/01:00pm 14.1 8.0 9.7 75 2.3 WSW 32 44 17 24 - - 0.2
27/12:31pm 15.4 9.0 9.5 68 3.1 WSW 33 52 18 28 - - 0.2
27/12:30pm 15.7 9.4 9.6 67 3.2 WSW 33 52 18 28 - - 0.2
27/12:10pm 15.5 8.8 9.6 68 3.1 WSW 35 54 19 29 - - 0.2
27/12:00pm 15.5 8.8 9.6 68 3.1 WSW 35 50 19 27 - - 0.2
27/11:30am 16.0 9.8 11.4 74 2.5 WSW 35 50 19 27 - - 0.2
27/11:00am 15.7 9.5 12.5 81 1.8 W 37 54 20 29 - - 0.2
27/10:57am 15.4 9.4 12.2 81 1.7 WNW 35 52 19 28 - - 0.2
27/10:54am 15.6 10.0 12.0 79 2.0 WNW 33 52 18 28 - - 0.2
27/10:30am 16.4 9.7 11.1 71 2.8 WNW 37 52 20 28 - - 0.2
27/10:02am 15.7 10.0 11.1 74 2.5 WNW 32 52 17 28 - - 0.2
27/10:00am 15.9 10.8 11.9 77 2.2 WNW 30 46 16 25 - - 0.2
27/09:31am 13.2 6.5 10.9 86 1.2 WNW 37 56 20 30 - - 0.2
27/09:30am 13.3 6.3 11.2 87 1.1 WNW 39 56 21 30 - - 0.2
27/09:18am 15.2 8.3 10.4 73 2.5 WNW 37 57 20 31 - - 0.0
27/09:00am 15.1 7.7 9.9 71 2.7 WNW 39 54 21 29 - - 33.6
27/08:36am 14.8 9.1 11.2 79 1.9 WNW 32 50 17 27 - - 33.6
27/08:30am 14.5 8.8 11.7 83 1.5 NW 33 43 18 23 - - 33.6
27/08:00am 14.0 7.5 10.2 78 2.0 W 35 52 19 28 - - 33.6
27/07:40am 14.7 9.0 9.7 72 2.6 W 30 57 16 31 - - 33.2
27/07:30am 14.7 8.1 8.6 67 3.1 WNW 33 48 18 26 - - 33.2
27/07:01am 14.4 8.3 8.4 67 3.0 WNW 30 50 16 27 - - 33.2
27/07:00am 14.5 8.0 8.2 66 3.2 WNW 32 50 17 27 - - 33.2
27/06:30am 14.2 7.7 9.0 71 2.6 W 33 48 18 26 - - 33.2
27/06:10am 13.8 8.1 11.0 83 1.5 W 32 50 17 27 - - 33.2
27/06:00am 13.2 9.3 12.1 93 0.6 W 24 44 13 24 - - 33.2
27/05:58am 13.0 10.1 12.4 96 0.3 WNW 19 44 10 24 - - 33.2
27/05:30am 12.1 11.2 11.2 94 0.5 NW 7 11 4 6 - - 33.2
27/05:00am 12.8 8.3 10.2 84 1.3 NW 24 39 13 21 - - 30.0
27/04:30am 12.4 7.7 10.5 88 1.0 NW 26 37 14 20 - - 30.0
27/04:00am 12.0 6.8 10.2 89 0.9 NW 28 37 15 20 - - 29.6
27/03:30am 12.6 7.0 12.1 97 0.3 NW 33 43 18 23 - - 28.8
27/03:00am 12.4 7.4 12.1 98 0.2 WNW 30 46 16 25 - - 28.4
27/02:51am 12.8 8.3 12.5 98 0.2 WNW 28 46 15 25 - - 28.2
27/02:30am 13.0 10.6 12.7 98 0.2 WNW 17 24 9 13 - - 27.8
27/02:00am 12.6 12.6 12.3 98 0.2 SW 4 7 2 4 - - 26.2
27/01:30am 12.7 10.2 12.4 98 0.2 WSW 17 22 9 12 - - 25.2
27/01:00am 12.9 9.5 12.6 98 0.2 W 22 32 12 17 - - 23.2
27/12:30am 13.0 10.2 12.7 98 0.2 WSW 19 26 10 14 - - 21.2
27/12:00am 13.0 10.0 12.7 98 0.2 WSW 20 28 11 15 - - 18.6
 
Date/Time
WST
Temp
°C
App
Temp
°C
Dew
Point
°C
Rel
Hum
%
Delta-T
°C
Wind Press
QNH
hPa
Press
MSL
hPa
Rain since
9am
mm
Dir  Spd
km/h
Gust
km/h
Spd
kts
Gust
kts
26/11:30pm 13.3 9.7 13.0 98 0.2 WSW 24 37 13 20 - - 17.2
26/11:00pm 13.5 10.7 13.2 98 0.2 WSW 20 28 11 15 - - 13.8
26/10:30pm 13.1 10.2 12.8 98 0.2 SW 20 32 11 17 - - 11.6
26/10:08pm 12.9 7.4 12.6 98 0.2 WSW 33 54 18 29 - - 11.6
26/10:00pm 12.7 5.3 12.4 98 0.2 WSW 43 57 23 31 - - 11.2
26/09:51pm 13.4 7.7 13.1 98 0.2 WSW 35 57 19 31 - - 10.8
26/09:30pm 13.7 9.5 13.4 98 0.2 WSW 28 39 15 21 - - 10.2
26/09:00pm 13.7 9.1 13.4 98 0.2 WSW 30 41 16 22 - - 7.6
26/08:47pm 13.8 8.3 13.5 98 0.2 WSW 35 54 19 29 - - 6.2
26/08:41pm 14.2 8.8 13.9 98 0.2 WNW 35 57 19 31 - - 4.6
26/08:30pm 16.5 12.3 16.2 98 0.2 NNW 33 52 18 28 - - 1.6
26/08:01pm 17.0 12.8 16.2 95 0.5 NNW 33 54 18 29 - - 1.4
26/08:00pm 17.1 12.6 16.3 95 0.5 NNW 35 54 19 29 - - 1.4
26/07:50pm 17.1 14.1 16.8 98 0.2 NNW 28 46 15 25 - - 1.4
26/07:30pm 17.1 14.9 16.8 98 0.2 NNW 24 35 13 19 - - 1.4
26/07:00pm 16.6 13.8 16.3 98 0.2 NNW 26 37 14 20 - - 1.4
26/06:30pm 16.1 12.7 15.8 98 0.2 NNW 28 44 15 24 - - 1.4
26/06:10pm 16.2 11.1 15.9 98 0.2 NW 37 57 20 31 - - 1.2
26/06:00pm 16.6 11.0 15.6 94 0.6 NW 39 54 21 29 - - 0.4
26/05:38pm 18.3 13.7 13.4 73 2.8 NNW 30 56 16 30 - - 0.0
26/05:30pm 18.0 14.4 13.1 73 2.8 NNW 24 35 13 19 - - 0.0
26/05:00pm 18.0 14.7 12.9 72 2.9 NNW 22 35 12 19 - - 0.0
26/04:30pm 18.6 13.9 12.1 66 3.6 NNW 28 41 15 22 - - 0.0
26/04:00pm 18.4 13.6 11.7 65 3.7 NNW 28 43 15 23 - - 0.0
26/03:30pm 19.0 14.0 11.1 60 4.3 NNW 28 37 15 20 - - 0.0
26/03:00pm 19.5 15.0 8.5 49 5.7 NNW 22 33 12 18 - - 0.0
26/02:30pm 20.4 15.6 5.6 38 7.3 NNW 20 30 11 16 - - 0.0
26/02:00pm 20.6 15.5 4.2 34 7.9 N 20 32 11 17 - - 0.0
26/01:30pm 19.8 14.4 4.3 36 7.5 N 22 35 12 19 - - 0.0
26/01:00pm 19.6 13.7 4.1 36 7.4 N 24 37 13 20 - - 0.0
26/12:30pm 19.8 13.8 3.1 33 7.8 NNW 24 35 13 19 - - 0.0
26/12:00pm 20.4 14.9 4.0 34 7.9 N 22 32 12 17 - - 0.0
26/11:30am 19.9 14.3 3.6 34 7.7 N 22 39 12 21 - - 0.0
26/11:00am 19.3 14.7 3.9 36 7.3 N 17 28 9 15 - - 0.0
26/10:30am 18.4 13.2 3.5 37 7.0 N 20 33 11 18 - - 0.0
26/10:00am 17.2 12.2 3.8 41 6.3 N 19 32 10 17 - - 0.0
26/09:30am 16.6 12.0 3.7 42 6.0 NNE 17 28 9 15 - - 0.0
26/09:00am 17.1 12.1 3.8 41 6.2 NNE 19 33 10 18 - - 0.0
26/08:30am 16.6 11.3 3.0 40 6.2 NNE 20 37 11 20 - - 0.0
26/08:00am 15.8 10.7 2.9 42 5.8 NNE 19 35 10 19 - - 0.0
26/07:30am 15.1 9.4 3.0 44 5.5 NNE 22 39 12 21 - - 0.0
26/07:00am 15.0 9.3 2.9 44 5.4 NNE 22 35 12 19 - - 0.0
26/06:30am 15.0 9.3 2.9 44 5.4 NE 22 41 12 22 - - 0.0
26/06:00am 14.9 9.6 3.1 45 5.3 NE 20 32 11 17 - - 0.0
26/05:30am 14.9 9.8 3.1 45 5.3 NE 19 32 10 17 - - 0.0
26/05:00am 15.1 9.5 3.3 45 5.4 NE 22 33 12 18 - - 0.0

Other Formats:

Comma delimited format used in spreadsheet applications
http://www.bom.gov.au/fwo/IDW60801/IDW60801.94614.axf

JavaScript Object Notation format (JSON) in row-major order
http://www.bom.gov.au/fwo/IDW60801/IDW60801.94614.json